sensor_id;sensor_type;location;lat;lon;timestamp;P1;durP1;ratioP1;P2;durP2;ratioP2
77066;SDS011;65994;50.378;15.470;2023-01-08T00:00:57;27.67;;;17.77;;
77066;SDS011;65994;50.378;15.470;2023-01-08T00:03:43;24.88;;;16.30;;
77066;SDS011;65994;50.378;15.470;2023-01-08T00:06:10;29.80;;;17.00;;
77066;SDS011;65994;50.378;15.470;2023-01-08T00:08:40;27.77;;;17.77;;
77066;SDS011;65994;50.378;15.470;2023-01-08T00:11:06;28.73;;;16.55;;
77066;SDS011;65994;50.378;15.470;2023-01-08T00:13:33;27.98;;;17.23;;
77066;SDS011;65994;50.378;15.470;2023-01-08T00:16:03;26.33;;;16.77;;
77066;SDS011;65994;50.378;15.470;2023-01-08T00:18:30;26.85;;;17.17;;
77066;SDS011;65994;50.378;15.470;2023-01-08T00:20:57;25.50;;;16.10;;
77066;SDS011;65994;50.378;15.470;2023-01-08T00:23:23;26.38;;;16.58;;
77066;SDS011;65994;50.378;15.470;2023-01-08T00:25:50;24.70;;;15.80;;
77066;SDS011;65994;50.378;15.470;2023-01-08T00:28:17;25.02;;;16.63;;
77066;SDS011;65994;50.378;15.470;2023-01-08T00:30:45;25.30;;;16.95;;
77066;SDS011;65994;50.378;15.470;2023-01-08T00:33:12;27.30;;;15.93;;
77066;SDS011;65994;50.378;15.470;2023-01-08T00:35:39;27.05;;;17.15;;
77066;SDS011;65994;50.378;15.470;2023-01-08T00:38:06;28.38;;;17.08;;
77066;SDS011;65994;50.378;15.470;2023-01-08T00:40:32;29.92;;;17.85;;
77066;SDS011;65994;50.378;15.470;2023-01-08T00:43:00;27.98;;;17.88;;
77066;SDS011;65994;50.378;15.470;2023-01-08T00:45:26;29.83;;;19.48;;
77066;SDS011;65994;50.378;15.470;2023-01-08T00:47:52;27.20;;;17.13;;
77066;SDS011;65994;50.378;15.470;2023-01-08T00:50:18;27.45;;;17.05;;
77066;SDS011;65994;50.378;15.470;2023-01-08T00:52:45;27.48;;;16.60;;
77066;SDS011;65994;50.378;15.470;2023-01-08T00:55:11;25.90;;;16.10;;
77066;SDS011;65994;50.378;15.470;2023-01-08T00:57:37;26.52;;;15.20;;
77066;SDS011;65994;50.378;15.470;2023-01-08T01:00:04;27.23;;;16.33;;
77066;SDS011;65994;50.378;15.470;2023-01-08T01:02:37;26.00;;;17.40;;
77066;SDS011;65994;50.378;15.470;2023-01-08T01:05:04;25.98;;;17.55;;
77066;SDS011;65994;50.378;15.470;2023-01-08T01:07:32;26.33;;;16.98;;
77066;SDS011;65994;50.378;15.470;2023-01-08T01:09:58;29.98;;;18.55;;
77066;SDS011;65994;50.378;15.470;2023-01-08T01:12:24;27.60;;;17.95;;
77066;SDS011;65994;50.378;15.470;2023-01-08T01:14:51;27.90;;;17.13;;
77066;SDS011;65994;50.378;15.470;2023-01-08T01:17:17;27.38;;;16.98;;
77066;SDS011;65994;50.378;15.470;2023-01-08T01:19:43;26.45;;;17.77;;
77066;SDS011;65994;50.378;15.470;2023-01-08T01:22:10;27.40;;;17.02;;
77066;SDS011;65994;50.378;15.470;2023-01-08T01:24:36;27.10;;;17.58;;
77066;SDS011;65994;50.378;15.470;2023-01-08T01:27:03;26.38;;;17.63;;
77066;SDS011;65994;50.378;15.470;2023-01-08T01:29:29;26.13;;;17.55;;
77066;SDS011;65994;50.378;15.470;2023-01-08T01:31:55;23.25;;;15.70;;
77066;SDS011;65994;50.378;15.470;2023-01-08T01:34:21;25.85;;;16.77;;
77066;SDS011;65994;50.378;15.470;2023-01-08T01:36:48;26.33;;;17.23;;
77066;SDS011;65994;50.378;15.470;2023-01-08T01:39:14;28.38;;;17.98;;
77066;SDS011;65994;50.378;15.470;2023-01-08T01:41:43;25.95;;;16.48;;
77066;SDS011;65994;50.378;15.470;2023-01-08T01:47:00;26.73;;;18.00;;
77066;SDS011;65994;50.378;15.470;2023-01-08T01:49:30;29.83;;;19.70;;
77066;SDS011;65994;50.378;15.470;2023-01-08T01:51:58;28.17;;;19.15;;
77066;SDS011;65994;50.378;15.470;2023-01-08T01:54:28;29.52;;;20.27;;
77066;SDS011;65994;50.378;15.470;2023-01-08T01:56:56;29.80;;;20.25;;
77066;SDS011;65994;50.378;15.470;2023-01-08T01:59:24;26.55;;;17.73;;
77066;SDS011;65994;50.378;15.470;2023-01-08T02:01:50;27.60;;;18.63;;
77066;SDS011;65994;50.378;15.470;2023-01-08T02:04:17;27.65;;;18.13;;
77066;SDS011;65994;50.378;15.470;2023-01-08T02:09:47;28.42;;;16.85;;
77066;SDS011;65994;50.378;15.470;2023-01-08T02:12:22;28.13;;;16.80;;
77066;SDS011;65994;50.378;15.470;2023-01-08T02:14:58;25.67;;;16.30;;
77066;SDS011;65994;50.378;15.470;2023-01-08T02:20:14;26.65;;;15.00;;
77066;SDS011;65994;50.378;15.470;2023-01-08T02:22:46;25.42;;;16.25;;
77066;SDS011;65994;50.378;15.470;2023-01-08T02:28:26;24.73;;;14.85;;
77066;SDS011;65994;50.378;15.470;2023-01-08T02:30:54;24.80;;;15.38;;
77066;SDS011;65994;50.378;15.470;2023-01-08T02:33:22;21.00;;;14.73;;
77066;SDS011;65994;50.378;15.470;2023-01-08T02:35:53;23.65;;;15.10;;
77066;SDS011;65994;50.378;15.470;2023-01-08T02:38:41;24.33;;;16.23;;
77066;SDS011;65994;50.378;15.470;2023-01-08T02:41:16;23.23;;;15.32;;
77066;SDS011;65994;50.378;15.470;2023-01-08T02:43:47;26.23;;;16.23;;
77066;SDS011;65994;50.378;15.470;2023-01-08T02:46:18;24.23;;;14.35;;
77066;SDS011;65994;50.378;15.470;2023-01-08T02:48:52;24.15;;;14.95;;
77066;SDS011;65994;50.378;15.470;2023-01-08T02:51:43;22.63;;;14.55;;
77066;SDS011;65994;50.378;15.470;2023-01-08T02:54:16;25.90;;;15.15;;
77066;SDS011;65994;50.378;15.470;2023-01-08T02:56:48;26.15;;;15.27;;
77066;SDS011;65994;50.378;15.470;2023-01-08T02:59:20;25.25;;;15.35;;
77066;SDS011;65994;50.378;15.470;2023-01-08T03:01:48;25.02;;;15.30;;
77066;SDS011;65994;50.378;15.470;2023-01-08T03:04:16;28.15;;;16.45;;
77066;SDS011;65994;50.378;15.470;2023-01-08T03:06:46;27.42;;;16.77;;
77066;SDS011;65994;50.378;15.470;2023-01-08T03:09:13;26.23;;;14.90;;
77066;SDS011;65994;50.378;15.470;2023-01-08T03:14:27;24.98;;;16.08;;
77066;SDS011;65994;50.378;15.470;2023-01-08T03:16:58;47.53;;;32.53;;
77066;SDS011;65994;50.378;15.470;2023-01-08T03:19:33;26.77;;;17.88;;
77066;SDS011;65994;50.378;15.470;2023-01-08T03:22:06;22.10;;;14.32;;
77066;SDS011;65994;50.378;15.470;2023-01-08T03:24:36;98.30;;;57.50;;
77066;SDS011;65994;50.378;15.470;2023-01-08T03:27:05;473.90;;;280.45;;
77066;SDS011;65994;50.378;15.470;2023-01-08T03:29:35;240.25;;;116.80;;
77066;SDS011;65994;50.378;15.470;2023-01-08T03:34:34;211.75;;;78.70;;
77066;SDS011;65994;50.378;15.470;2023-01-08T03:37:03;144.70;;;57.25;;
77066;SDS011;65994;50.378;15.470;2023-01-08T03:39:34;199.93;;;74.55;;
77066;SDS011;65994;50.378;15.470;2023-01-08T03:42:07;48.60;;;23.02;;
77066;SDS011;65994;50.378;15.470;2023-01-08T03:44:36;26.48;;;16.42;;
77066;SDS011;65994;50.378;15.470;2023-01-08T03:47:03;27.95;;;15.50;;
77066;SDS011;65994;50.378;15.470;2023-01-08T03:49:31;24.67;;;15.52;;
77066;SDS011;65994;50.378;15.470;2023-01-08T03:51:59;25.60;;;15.80;;
77066;SDS011;65994;50.378;15.470;2023-01-08T03:54:28;26.95;;;16.40;;
77066;SDS011;65994;50.378;15.470;2023-01-08T03:56:56;24.92;;;14.98;;
77066;SDS011;65994;50.378;15.470;2023-01-08T03:59:22;25.25;;;15.57;;
77066;SDS011;65994;50.378;15.470;2023-01-08T04:01:48;26.20;;;14.73;;
77066;SDS011;65994;50.378;15.470;2023-01-08T04:04:15;24.27;;;15.88;;
77066;SDS011;65994;50.378;15.470;2023-01-08T04:06:41;22.02;;;14.85;;
77066;SDS011;65994;50.378;15.470;2023-01-08T04:09:08;28.63;;;16.60;;
77066;SDS011;65994;50.378;15.470;2023-01-08T04:11:35;25.55;;;16.00;;
77066;SDS011;65994;50.378;15.470;2023-01-08T04:14:01;20.75;;;14.20;;
77066;SDS011;65994;50.378;15.470;2023-01-08T04:16:27;22.70;;;14.82;;
77066;SDS011;65994;50.378;15.470;2023-01-08T04:18:53;29.20;;;17.73;;
77066;SDS011;65994;50.378;15.470;2023-01-08T04:21:19;50.67;;;24.42;;
77066;SDS011;65994;50.378;15.470;2023-01-08T04:23:46;48.45;;;26.23;;
77066;SDS011;65994;50.378;15.470;2023-01-08T04:26:12;41.80;;;22.98;;
77066;SDS011;65994;50.378;15.470;2023-01-08T04:28:38;49.10;;;26.98;;
77066;SDS011;65994;50.378;15.470;2023-01-08T04:31:08;39.42;;;22.65;;
77066;SDS011;65994;50.378;15.470;2023-01-08T04:33:35;41.67;;;21.45;;
77066;SDS011;65994;50.378;15.470;2023-01-08T04:36:02;42.75;;;24.45;;
77066;SDS011;65994;50.378;15.470;2023-01-08T04:38:29;42.28;;;22.95;;
77066;SDS011;65994;50.378;15.470;2023-01-08T04:40:56;39.25;;;23.05;;
77066;SDS011;65994;50.378;15.470;2023-01-08T04:43:23;41.90;;;24.17;;
77066;SDS011;65994;50.378;15.470;2023-01-08T04:45:49;40.45;;;23.73;;
77066;SDS011;65994;50.378;15.470;2023-01-08T04:48:16;33.60;;;20.05;;
77066;SDS011;65994;50.378;15.470;2023-01-08T04:50:42;34.42;;;20.40;;
77066;SDS011;65994;50.378;15.470;2023-01-08T04:53:08;34.25;;;20.67;;
77066;SDS011;65994;50.378;15.470;2023-01-08T04:55:34;36.05;;;20.38;;
77066;SDS011;65994;50.378;15.470;2023-01-08T04:58:01;26.50;;;17.10;;
77066;SDS011;65994;50.378;15.470;2023-01-08T05:00:27;26.02;;;17.42;;
77066;SDS011;65994;50.378;15.470;2023-01-08T05:02:53;26.85;;;16.45;;
77066;SDS011;65994;50.378;15.470;2023-01-08T05:05:20;25.35;;;15.77;;
77066;SDS011;65994;50.378;15.470;2023-01-08T05:07:46;27.10;;;16.98;;
77066;SDS011;65994;50.378;15.470;2023-01-08T05:10:12;26.58;;;16.77;;
77066;SDS011;65994;50.378;15.470;2023-01-08T05:12:38;41.70;;;21.48;;
77066;SDS011;65994;50.378;15.470;2023-01-08T05:15:04;30.05;;;17.70;;
77066;SDS011;65994;50.378;15.470;2023-01-08T05:17:31;30.35;;;18.95;;
77066;SDS011;65994;50.378;15.470;2023-01-08T05:19:57;33.40;;;20.38;;
77066;SDS011;65994;50.378;15.470;2023-01-08T05:22:24;44.25;;;24.85;;
77066;SDS011;65994;50.378;15.470;2023-01-08T05:24:50;41.80;;;23.10;;
77066;SDS011;65994;50.378;15.470;2023-01-08T05:27:16;46.15;;;25.80;;
77066;SDS011;65994;50.378;15.470;2023-01-08T05:29:42;49.78;;;27.45;;
77066;SDS011;65994;50.378;15.470;2023-01-08T05:32:17;43.10;;;24.13;;
77066;SDS011;65994;50.378;15.470;2023-01-08T05:34:44;32.55;;;21.50;;
77066;SDS011;65994;50.378;15.470;2023-01-08T05:37:10;31.50;;;18.92;;
77066;SDS011;65994;50.378;15.470;2023-01-08T05:39:37;40.70;;;22.90;;
77066;SDS011;65994;50.378;15.470;2023-01-08T05:42:03;41.08;;;21.38;;
77066;SDS011;65994;50.378;15.470;2023-01-08T05:44:30;37.15;;;21.58;;
77066;SDS011;65994;50.378;15.470;2023-01-08T05:46:56;40.30;;;23.88;;
77066;SDS011;65994;50.378;15.470;2023-01-08T05:49:22;36.75;;;20.88;;
77066;SDS011;65994;50.378;15.470;2023-01-08T05:51:49;33.55;;;20.08;;
77066;SDS011;65994;50.378;15.470;2023-01-08T05:54:15;34.00;;;21.08;;
77066;SDS011;65994;50.378;15.470;2023-01-08T05:56:42;25.45;;;16.65;;
77066;SDS011;65994;50.378;15.470;2023-01-08T05:59:10;26.88;;;16.33;;
77066;SDS011;65994;50.378;15.470;2023-01-08T06:01:38;26.00;;;15.60;;
77066;SDS011;65994;50.378;15.470;2023-01-08T06:04:04;26.08;;;17.13;;
77066;SDS011;65994;50.378;15.470;2023-01-08T06:06:31;35.95;;;21.58;;
77066;SDS011;65994;50.378;15.470;2023-01-08T06:08:57;33.38;;;20.20;;
77066;SDS011;65994;50.378;15.470;2023-01-08T06:11:23;28.13;;;16.92;;
77066;SDS011;65994;50.378;15.470;2023-01-08T06:13:49;30.60;;;17.90;;
77066;SDS011;65994;50.378;15.470;2023-01-08T06:16:15;25.33;;;16.55;;
77066;SDS011;65994;50.378;15.470;2023-01-08T06:18:42;27.10;;;16.60;;
77066;SDS011;65994;50.378;15.470;2023-01-08T06:21:08;28.30;;;17.17;;
77066;SDS011;65994;50.378;15.470;2023-01-08T06:23:35;41.17;;;21.15;;
77066;SDS011;65994;50.378;15.470;2023-01-08T06:26:01;40.83;;;22.27;;
77066;SDS011;65994;50.378;15.470;2023-01-08T06:28:30;36.58;;;19.52;;
77066;SDS011;65994;50.378;15.470;2023-01-08T06:31:01;31.02;;;17.85;;
77066;SDS011;65994;50.378;15.470;2023-01-08T06:33:28;39.45;;;23.70;;
77066;SDS011;65994;50.378;15.470;2023-01-08T06:35:58;40.40;;;25.13;;
77066;SDS011;65994;50.378;15.470;2023-01-08T06:38:29;35.72;;;22.88;;
77066;SDS011;65994;50.378;15.470;2023-01-08T06:40:56;34.95;;;22.08;;
77066;SDS011;65994;50.378;15.470;2023-01-08T06:43:22;30.60;;;17.92;;
77066;SDS011;65994;50.378;15.470;2023-01-08T06:45:52;29.73;;;17.88;;
77066;SDS011;65994;50.378;15.470;2023-01-08T06:48:19;28.10;;;16.95;;
77066;SDS011;65994;50.378;15.470;2023-01-08T06:50:45;30.58;;;18.10;;
77066;SDS011;65994;50.378;15.470;2023-01-08T06:53:11;29.92;;;18.50;;
77066;SDS011;65994;50.378;15.470;2023-01-08T06:55:38;33.03;;;18.27;;
77066;SDS011;65994;50.378;15.470;2023-01-08T06:58:04;31.85;;;18.88;;
77066;SDS011;65994;50.378;15.470;2023-01-08T07:00:30;31.58;;;18.98;;
77066;SDS011;65994;50.378;15.470;2023-01-08T07:02:56;28.95;;;17.27;;
77066;SDS011;65994;50.378;15.470;2023-01-08T07:05:23;31.17;;;19.52;;
77066;SDS011;65994;50.378;15.470;2023-01-08T07:07:49;36.17;;;21.42;;
77066;SDS011;65994;50.378;15.470;2023-01-08T07:10:15;34.97;;;20.95;;
77066;SDS011;65994;50.378;15.470;2023-01-08T07:12:41;35.15;;;21.90;;
77066;SDS011;65994;50.378;15.470;2023-01-08T07:15:08;35.42;;;22.48;;
77066;SDS011;65994;50.378;15.470;2023-01-08T07:17:34;34.78;;;19.55;;
77066;SDS011;65994;50.378;15.470;2023-01-08T07:20:00;32.17;;;18.40;;
77066;SDS011;65994;50.378;15.470;2023-01-08T07:22:27;29.15;;;17.83;;
77066;SDS011;65994;50.378;15.470;2023-01-08T07:24:53;28.23;;;16.48;;
77066;SDS011;65994;50.378;15.470;2023-01-08T07:27:19;27.83;;;16.98;;
77066;SDS011;65994;50.378;15.470;2023-01-08T07:29:46;35.97;;;20.90;;
77066;SDS011;65994;50.378;15.470;2023-01-08T07:32:12;32.97;;;19.73;;
77066;SDS011;65994;50.378;15.470;2023-01-08T07:34:38;30.45;;;18.58;;
77066;SDS011;65994;50.378;15.470;2023-01-08T07:37:04;28.23;;;17.98;;
77066;SDS011;65994;50.378;15.470;2023-01-08T07:39:31;28.33;;;17.35;;
77066;SDS011;65994;50.378;15.470;2023-01-08T07:41:57;32.40;;;20.23;;
77066;SDS011;65994;50.378;15.470;2023-01-08T07:44:23;32.20;;;19.08;;
77066;SDS011;65994;50.378;15.470;2023-01-08T07:46:49;40.63;;;21.55;;
77066;SDS011;65994;50.378;15.470;2023-01-08T07:49:15;46.70;;;25.58;;
77066;SDS011;65994;50.378;15.470;2023-01-08T07:51:41;61.47;;;31.00;;
77066;SDS011;65994;50.378;15.470;2023-01-08T07:54:08;53.10;;;27.60;;
77066;SDS011;65994;50.378;15.470;2023-01-08T07:56:34;45.22;;;25.30;;
77066;SDS011;65994;50.378;15.470;2023-01-08T07:59:00;43.80;;;25.17;;
77066;SDS011;65994;50.378;15.470;2023-01-08T08:01:26;45.67;;;24.45;;
77066;SDS011;65994;50.378;15.470;2023-01-08T08:03:53;41.95;;;23.65;;
77066;SDS011;65994;50.378;15.470;2023-01-08T08:06:19;42.92;;;24.63;;
77066;SDS011;65994;50.378;15.470;2023-01-08T08:08:45;35.30;;;20.20;;
77066;SDS011;65994;50.378;15.470;2023-01-08T08:11:12;45.30;;;25.55;;
77066;SDS011;65994;50.378;15.470;2023-01-08T08:13:38;32.78;;;19.77;;
77066;SDS011;65994;50.378;15.470;2023-01-08T08:16:09;27.05;;;16.35;;
77066;SDS011;65994;50.378;15.470;2023-01-08T08:18:37;29.70;;;18.60;;
77066;SDS011;65994;50.378;15.470;2023-01-08T08:21:03;34.42;;;20.88;;
77066;SDS011;65994;50.378;15.470;2023-01-08T08:23:31;26.90;;;17.60;;
77066;SDS011;65994;50.378;15.470;2023-01-08T08:25:57;27.75;;;16.70;;
77066;SDS011;65994;50.378;15.470;2023-01-08T08:28:23;46.38;;;28.55;;
77066;SDS011;65994;50.378;15.470;2023-01-08T08:30:50;57.33;;;35.35;;
77066;SDS011;65994;50.378;15.470;2023-01-08T08:33:16;40.78;;;25.13;;
77066;SDS011;65994;50.378;15.470;2023-01-08T08:35:46;39.20;;;23.25;;
77066;SDS011;65994;50.378;15.470;2023-01-08T08:38:15;36.28;;;23.08;;
77066;SDS011;65994;50.378;15.470;2023-01-08T08:40:41;37.80;;;23.13;;
77066;SDS011;65994;50.378;15.470;2023-01-08T08:43:08;42.38;;;25.13;;
77066;SDS011;65994;50.378;15.470;2023-01-08T08:45:34;32.13;;;20.63;;
77066;SDS011;65994;50.378;15.470;2023-01-08T08:48:01;31.35;;;19.67;;
77066;SDS011;65994;50.378;15.470;2023-01-08T08:53:03;28.33;;;17.45;;
77066;SDS011;65994;50.378;15.470;2023-01-08T08:55:31;28.77;;;17.17;;
77066;SDS011;65994;50.378;15.470;2023-01-08T08:58:02;30.08;;;19.27;;
77066;SDS011;65994;50.378;15.470;2023-01-08T09:00:30;31.42;;;18.40;;
77066;SDS011;65994;50.378;15.470;2023-01-08T09:02:57;30.63;;;17.52;;
77066;SDS011;65994;50.378;15.470;2023-01-08T09:05:23;28.95;;;19.45;;
77066;SDS011;65994;50.378;15.470;2023-01-08T09:07:50;30.90;;;16.65;;
77066;SDS011;65994;50.378;15.470;2023-01-08T09:10:16;27.50;;;16.25;;
77066;SDS011;65994;50.378;15.470;2023-01-08T09:12:42;30.30;;;18.45;;
77066;SDS011;65994;50.378;15.470;2023-01-08T09:15:08;32.30;;;18.50;;
77066;SDS011;65994;50.378;15.470;2023-01-08T09:17:35;29.77;;;17.48;;
77066;SDS011;65994;50.378;15.470;2023-01-08T09:20:03;27.05;;;16.77;;
77066;SDS011;65994;50.378;15.470;2023-01-08T09:22:31;30.77;;;18.42;;
77066;SDS011;65994;50.378;15.470;2023-01-08T09:24:57;31.60;;;17.50;;
77066;SDS011;65994;50.378;15.470;2023-01-08T09:27:24;29.00;;;17.15;;
77066;SDS011;65994;50.378;15.470;2023-01-08T09:29:50;26.95;;;16.90;;
77066;SDS011;65994;50.378;15.470;2023-01-08T09:32:16;29.75;;;16.63;;
77066;SDS011;65994;50.378;15.470;2023-01-08T09:34:42;26.50;;;16.42;;
77066;SDS011;65994;50.378;15.470;2023-01-08T09:37:08;29.27;;;18.33;;
77066;SDS011;65994;50.378;15.470;2023-01-08T09:39:35;28.50;;;17.35;;
77066;SDS011;65994;50.378;15.470;2023-01-08T09:42:02;25.05;;;15.60;;
77066;SDS011;65994;50.378;15.470;2023-01-08T09:47:01;40.53;;;24.70;;
77066;SDS011;65994;50.378;15.470;2023-01-08T09:49:35;36.42;;;21.38;;
77066;SDS011;65994;50.378;15.470;2023-01-08T09:52:13;40.75;;;23.77;;
77066;SDS011;65994;50.378;15.470;2023-01-08T09:54:40;60.17;;;35.20;;
77066;SDS011;65994;50.378;15.470;2023-01-08T09:57:14;130.45;;;71.20;;
77066;SDS011;65994;50.378;15.470;2023-01-08T09:59:43;49.58;;;28.23;;
77066;SDS011;65994;50.378;15.470;2023-01-08T10:02:14;66.95;;;43.97;;
77066;SDS011;65994;50.378;15.470;2023-01-08T10:04:48;58.13;;;35.97;;
77066;SDS011;65994;50.378;15.470;2023-01-08T10:07:25;41.47;;;24.75;;
77066;SDS011;65994;50.378;15.470;2023-01-08T10:09:53;41.22;;;25.08;;
77066;SDS011;65994;50.378;15.470;2023-01-08T10:12:23;52.17;;;27.48;;
77066;SDS011;65994;50.378;15.470;2023-01-08T10:14:52;33.13;;;19.05;;
77066;SDS011;65994;50.378;15.470;2023-01-08T10:17:29;33.60;;;21.25;;
77066;SDS011;65994;50.378;15.470;2023-01-08T10:20:07;30.05;;;17.67;;
77066;SDS011;65994;50.378;15.470;2023-01-08T10:22:36;31.48;;;18.85;;
77066;SDS011;65994;50.378;15.470;2023-01-08T10:25:06;32.55;;;19.25;;
77066;SDS011;65994;50.378;15.470;2023-01-08T10:27:38;32.00;;;19.10;;
77066;SDS011;65994;50.378;15.470;2023-01-08T10:30:14;31.98;;;19.30;;
77066;SDS011;65994;50.378;15.470;2023-01-08T10:35:15;40.90;;;21.65;;
77066;SDS011;65994;50.378;15.470;2023-01-08T10:37:43;35.42;;;21.50;;
77066;SDS011;65994;50.378;15.470;2023-01-08T10:40:22;32.22;;;19.35;;
77066;SDS011;65994;50.378;15.470;2023-01-08T10:42:55;32.28;;;18.17;;
77066;SDS011;65994;50.378;15.470;2023-01-08T10:45:30;31.27;;;18.52;;
77066;SDS011;65994;50.378;15.470;2023-01-08T10:47:58;33.50;;;19.48;;
77066;SDS011;65994;50.378;15.470;2023-01-08T10:50:28;29.52;;;18.80;;
77066;SDS011;65994;50.378;15.470;2023-01-08T10:53:19;32.25;;;18.08;;
77066;SDS011;65994;50.378;15.470;2023-01-08T10:55:57;28.60;;;17.40;;
77066;SDS011;65994;50.378;15.470;2023-01-08T10:59:48;33.35;;;19.90;;
77066;SDS011;65994;50.378;15.470;2023-01-08T11:02:36;31.33;;;19.35;;
77066;SDS011;65994;50.378;15.470;2023-01-08T11:05:03;27.60;;;16.88;;
77066;SDS011;65994;50.378;15.470;2023-01-08T11:07:33;36.92;;;19.25;;
77066;SDS011;65994;50.378;15.470;2023-01-08T11:10:04;33.22;;;18.52;;
77066;SDS011;65994;50.378;15.470;2023-01-08T11:12:33;34.08;;;20.10;;
77066;SDS011;65994;50.378;15.470;2023-01-08T11:15:02;30.05;;;18.38;;
77066;SDS011;65994;50.378;15.470;2023-01-08T11:17:32;32.53;;;18.63;;
77066;SDS011;65994;50.378;15.470;2023-01-08T11:20:06;33.95;;;19.77;;
77066;SDS011;65994;50.378;15.470;2023-01-08T11:23:06;30.33;;;16.75;;
77066;SDS011;65994;50.378;15.470;2023-01-08T11:25:42;29.67;;;17.88;;
77066;SDS011;65994;50.378;15.470;2023-01-08T11:28:14;36.70;;;21.15;;
77066;SDS011;65994;50.378;15.470;2023-01-08T11:30:46;43.75;;;22.25;;
77066;SDS011;65994;50.378;15.470;2023-01-08T11:33:20;37.22;;;21.63;;
77066;SDS011;65994;50.378;15.470;2023-01-08T11:35:53;41.45;;;22.90;;
77066;SDS011;65994;50.378;15.470;2023-01-08T11:38:25;29.52;;;18.20;;
77066;SDS011;65994;50.378;15.470;2023-01-08T11:54:06;29.35;;;17.40;;
77066;SDS011;65994;50.378;15.470;2023-01-08T12:07:47;27.88;;;16.58;;
77066;SDS011;65994;50.378;15.470;2023-01-08T12:13:30;24.67;;;15.38;;
77066;SDS011;65994;50.378;15.470;2023-01-08T12:21:53;28.20;;;17.48;;
77066;SDS011;65994;50.378;15.470;2023-01-08T12:32:49;41.60;;;20.58;;
77066;SDS011;65994;50.378;15.470;2023-01-08T12:35:38;34.67;;;20.52;;
77066;SDS011;65994;50.378;15.470;2023-01-08T12:40:41;30.73;;;17.20;;
77066;SDS011;65994;50.378;15.470;2023-01-08T12:43:13;27.45;;;17.25;;
77066;SDS011;65994;50.378;15.470;2023-01-08T12:45:48;29.13;;;16.55;;
77066;SDS011;65994;50.378;15.470;2023-01-08T12:48:19;27.15;;;16.40;;
77066;SDS011;65994;50.378;15.470;2023-01-08T12:56:29;26.35;;;15.50;;
77066;SDS011;65994;50.378;15.470;2023-01-08T13:01:49;27.42;;;16.05;;
77066;SDS011;65994;50.378;15.470;2023-01-08T13:04:40;29.75;;;15.50;;
77066;SDS011;65994;50.378;15.470;2023-01-08T13:07:34;26.02;;;15.85;;
77066;SDS011;65994;50.378;15.470;2023-01-08T13:10:05;26.80;;;16.70;;
77066;SDS011;65994;50.378;15.470;2023-01-08T13:15:00;32.85;;;19.15;;
77066;SDS011;65994;50.378;15.470;2023-01-08T13:17:27;33.38;;;18.65;;
77066;SDS011;65994;50.378;15.470;2023-01-08T13:19:55;87.90;;;34.22;;
77066;SDS011;65994;50.378;15.470;2023-01-08T13:22:29;92.95;;;38.15;;
77066;SDS011;65994;50.378;15.470;2023-01-08T13:27:43;69.70;;;34.63;;
77066;SDS011;65994;50.378;15.470;2023-01-08T13:39:01;73.43;;;43.55;;
77066;SDS011;65994;50.378;15.470;2023-01-08T13:41:40;51.05;;;29.83;;
77066;SDS011;65994;50.378;15.470;2023-01-08T13:44:26;45.00;;;29.00;;
77066;SDS011;65994;50.378;15.470;2023-01-08T13:46:58;32.80;;;18.33;;
77066;SDS011;65994;50.378;15.470;2023-01-08T13:49:32;33.92;;;20.17;;
77066;SDS011;65994;50.378;15.470;2023-01-08T13:52:01;34.95;;;18.58;;
77066;SDS011;65994;50.378;15.470;2023-01-08T13:54:37;34.47;;;19.98;;
77066;SDS011;65994;50.378;15.470;2023-01-08T13:57:16;37.05;;;21.83;;
77066;SDS011;65994;50.378;15.470;2023-01-08T13:59:54;28.30;;;17.42;;
77066;SDS011;65994;50.378;15.470;2023-01-08T14:02:29;33.13;;;16.85;;
77066;SDS011;65994;50.378;15.470;2023-01-08T14:04:58;34.33;;;19.05;;
77066;SDS011;65994;50.378;15.470;2023-01-08T14:07:26;42.90;;;23.63;;
77066;SDS011;65994;50.378;15.470;2023-01-08T14:09:53;39.60;;;21.83;;
77066;SDS011;65994;50.378;15.470;2023-01-08T14:12:32;39.15;;;21.75;;
77066;SDS011;65994;50.378;15.470;2023-01-08T14:14:59;30.33;;;17.73;;
77066;SDS011;65994;50.378;15.470;2023-01-08T14:17:28;30.60;;;18.40;;
77066;SDS011;65994;50.378;15.470;2023-01-08T14:19:56;30.67;;;17.17;;
77066;SDS011;65994;50.378;15.470;2023-01-08T14:22:31;31.33;;;18.80;;
77066;SDS011;65994;50.378;15.470;2023-01-08T14:25:00;32.03;;;17.45;;
77066;SDS011;65994;50.378;15.470;2023-01-08T14:27:30;28.88;;;17.33;;
77066;SDS011;65994;50.378;15.470;2023-01-08T14:29:57;29.60;;;17.73;;
77066;SDS011;65994;50.378;15.470;2023-01-08T14:32:24;33.22;;;17.67;;
77066;SDS011;65994;50.378;15.470;2023-01-08T14:34:54;27.25;;;16.17;;
77066;SDS011;65994;50.378;15.470;2023-01-08T14:37:23;29.05;;;17.45;;
77066;SDS011;65994;50.378;15.470;2023-01-08T14:39:50;32.15;;;19.40;;
77066;SDS011;65994;50.378;15.470;2023-01-08T14:45:19;36.47;;;19.05;;
77066;SDS011;65994;50.378;15.470;2023-01-08T14:47:48;34.65;;;19.92;;
77066;SDS011;65994;50.378;15.470;2023-01-08T14:50:27;32.17;;;17.88;;
77066;SDS011;65994;50.378;15.470;2023-01-08T14:53:09;30.63;;;18.90;;
77066;SDS011;65994;50.378;15.470;2023-01-08T14:55:40;34.50;;;19.25;;
77066;SDS011;65994;50.378;15.470;2023-01-08T14:58:16;35.45;;;18.42;;
77066;SDS011;65994;50.378;15.470;2023-01-08T15:00:47;30.27;;;18.08;;
77066;SDS011;65994;50.378;15.470;2023-01-08T15:05:58;43.10;;;24.83;;
77066;SDS011;65994;50.378;15.470;2023-01-08T15:08:26;36.38;;;20.30;;
77066;SDS011;65994;50.378;15.470;2023-01-08T15:11:21;34.47;;;18.40;;
77066;SDS011;65994;50.378;15.470;2023-01-08T15:13:45;30.65;;;18.45;;
77066;SDS011;65994;50.378;15.470;2023-01-08T15:16:16;31.98;;;18.67;;
